createdAt,value
2018-11-29T00:00:24.639Z,18.9
2018-11-29T00:01:26.240Z,18.9
2018-11-29T00:02:28.134Z,19
2018-11-29T00:03:29.461Z,18.9
2018-11-29T00:04:31.082Z,19
2018-11-29T00:05:32.406Z,18.9
2018-11-29T00:06:33.729Z,18.9
2018-11-29T00:07:35.626Z,18.9
2018-11-29T00:08:36.696Z,18.9
2018-11-29T00:09:38.593Z,18.9
2018-11-29T00:10:39.916Z,19
2018-11-29T00:11:41.812Z,19
2018-11-29T00:12:43.155Z,19
2018-11-29T00:13:44.503Z,18.9
2018-11-29T00:14:45.839Z,19
2018-11-29T00:15:47.436Z,18.9
2018-11-29T00:16:49.331Z,18.9
2018-11-29T00:17:51.228Z,18.9
2018-11-29T00:18:52.553Z,19
2018-11-29T00:19:54.177Z,18.8
2018-11-29T00:20:55.521Z,18.9
2018-11-29T00:21:57.420Z,18.9
2018-11-29T00:22:58.767Z,18.9
2018-11-29T00:24:00.387Z,18.9
2018-11-29T00:25:02.010Z,18.9
2018-11-29T00:26:03.064Z,18.9
2018-11-29T00:27:04.387Z,18.9
2018-11-29T00:28:05.985Z,18.8
2018-11-29T00:29:07.604Z,18.8
2018-11-29T00:30:09.221Z,18.9
2018-11-29T00:31:10.840Z,18.9
2018-11-29T00:32:12.460Z,18.9
2018-11-29T00:33:13.785Z,18.9
2018-11-29T00:34:15.407Z,18.9
2018-11-29T00:35:16.749Z,19
2018-11-29T00:36:18.647Z,18.8
2018-11-29T00:37:20.262Z,18.8
2018-11-29T00:38:21.885Z,18.8
2018-11-29T00:39:23.483Z,18.8
2018-11-29T00:40:25.112Z,18.8
2018-11-29T00:41:26.432Z,18.9
2018-11-29T00:42:28.329Z,18.8
2018-11-29T00:43:29.379Z,18.8
2018-11-29T00:44:30.999Z,18.8
2018-11-29T00:45:32.343Z,19
2018-11-29T00:46:34.255Z,18.9
2018-11-29T00:47:36.149Z,18.9
2018-11-29T00:48:37.773Z,18.9
2018-11-29T00:49:39.672Z,18.9
2018-11-29T00:50:41.577Z,18.9
2018-11-29T00:51:43.197Z,19
2018-11-29T00:52:44.824Z,18.9
2018-11-29T00:53:46.145Z,19
2018-11-29T00:54:48.041Z,18.9
2018-11-29T00:55:49.658Z,18.9
2018-11-29T00:56:51.258Z,18.8
2018-11-29T00:57:53.154Z,18.8
2018-11-29T00:58:55.050Z,18.9
2018-11-29T00:59:56.671Z,18.8
2018-11-29T01:00:58.035Z,18.8
2018-11-29T01:01:59.657Z,18.8
2018-11-29T01:03:00.983Z,18.8
2018-11-29T01:04:02.603Z,18.9
2018-11-29T01:05:04.747Z,18.8
2018-11-29T01:06:06.642Z,18.8
2018-11-29T01:07:07.973Z,18.8
2018-11-29T01:08:09.293Z,18.9
2018-11-29T01:09:11.188Z,18.8
2018-11-29T01:10:12.808Z,18.8
2018-11-29T01:11:14.716Z,18.9
2018-11-29T01:12:16.335Z,18.8
2018-11-29T01:13:17.659Z,18.9
2018-11-29T01:14:19.286Z,18.9
2018-11-29T01:15:20.343Z,18.8
2018-11-29T01:16:21.933Z,18.9
2018-11-29T01:17:23.854Z,18.8
2018-11-29T01:18:25.168Z,18.8
2018-11-29T01:19:26.784Z,19
2018-11-29T01:20:28.680Z,18.9
2018-11-29T01:21:30.576Z,18.8
2018-11-29T01:22:32.193Z,18.9
2018-11-29T01:23:33.817Z,18.8
2018-11-29T01:24:35.416Z,18.9
2018-11-29T01:25:37.018Z,18.9
2018-11-29T01:26:38.910Z,18.9
2018-11-29T01:27:40.252Z,18.9
2018-11-29T01:28:41.851Z,18.8
2018-11-29T01:29:43.448Z,18.9
2018-11-29T01:30:45.351Z,18.9
2018-11-29T01:31:46.970Z,18.8
2018-11-29T01:32:48.866Z,18.8
2018-11-29T01:33:50.489Z,18.8
2018-11-29T01:34:52.106Z,18.9
2018-11-29T01:35:54.014Z,18.8
2018-11-29T01:36:55.636Z,18.8
2018-11-29T01:37:56.982Z,18.8
2018-11-29T01:38:58.327Z,18.9
2018-11-29T01:39:59.671Z,19
2018-11-29T01:41:00.994Z,18.9
2018-11-29T01:42:02.621Z,18.8
2018-11-29T01:43:03.940Z,18.9
2018-11-29T01:44:05.560Z,19
2018-11-29T01:45:06.920Z,19
2018-11-29T01:46:08.819Z,18.9
2018-11-29T01:47:10.711Z,18.9
2018-11-29T01:48:12.332Z,18.9
2018-11-29T01:49:13.951Z,18.9
2018-11-29T01:50:15.842Z,18.8
2018-11-29T01:51:17.460Z,18.8
2018-11-29T01:52:19.057Z,18.8
2018-11-29T01:53:20.677Z,18.8
2018-11-29T01:54:22.299Z,18.8
2018-11-29T01:55:23.625Z,18.7
2018-11-29T01:56:25.217Z,18.8
2018-11-29T01:57:26.577Z,18.8
2018-11-29T01:58:28.202Z,18.8
2018-11-29T01:59:29.819Z,18.8
2018-11-29T02:00:31.147Z,18.8
2018-11-29T02:01:33.043Z,18.9
2018-11-29T02:02:34.939Z,19
2018-11-29T02:03:36.558Z,18.8
2018-11-29T02:04:38.453Z,18.9
2018-11-29T02:05:40.347Z,18.8
2018-11-29T02:06:41.973Z,18.8
2018-11-29T02:07:43.865Z,18.8
2018-11-29T02:08:45.465Z,18.8
2018-11-29T02:09:46.807Z,18.8
2018-11-29T02:10:48.151Z,18.8
2018-11-29T02:11:50.043Z,18.8
2018-11-29T02:12:51.948Z,18.9
2018-11-29T02:13:53.836Z,18.9
2018-11-29T02:14:55.448Z,18.8
2018-11-29T02:15:57.052Z,18.9
2018-11-29T02:16:58.661Z,18.9
2018-11-29T02:18:00.554Z,18.8
2018-11-29T02:19:02.154Z,18.9
2018-11-29T02:20:04.048Z,18.9
2018-11-29T02:21:05.665Z,18.9
2018-11-29T02:22:07.564Z,18.8
2018-11-29T02:23:08.911Z,18.8
2018-11-29T02:24:10.253Z,18.8
2018-11-29T02:25:11.851Z,18.8
2018-11-29T02:26:13.470Z,18.8
2018-11-29T02:27:15.092Z,18.8
2018-11-29T02:28:16.709Z,18.9
2018-11-29T02:29:18.328Z,18.9
2018-11-29T02:30:19.376Z,18.9
2018-11-29T02:31:20.999Z,18.8
2018-11-29T02:32:22.358Z,18.9
2018-11-29T02:33:24.256Z,18.8
2018-11-29T02:34:25.881Z,18.8
2018-11-29T02:35:27.503Z,18.8
2018-11-29T02:36:28.544Z,18.8
2018-11-29T02:37:30.163Z,18.8
2018-11-29T02:38:32.060Z,18.7
2018-11-29T02:39:33.953Z,18.7
2018-11-29T02:40:35.853Z,18.7
2018-11-29T02:41:37.204Z,18.9
2018-11-29T02:42:38.803Z,18.8
2018-11-29T02:43:40.123Z,18.9
2018-11-29T02:44:41.467Z,18.8
2018-11-29T02:45:43.362Z,18.8
2018-11-29T02:46:44.409Z,18.8
2018-11-29T02:47:45.736Z,18.9
2018-11-29T02:48:47.630Z,18.9
2018-11-29T02:49:49.525Z,18.9
2018-11-29T02:50:51.120Z,18.8
2018-11-29T02:51:52.743Z,18.8
2018-11-29T02:52:54.651Z,18.8
2018-11-29T02:53:56.273Z,18.9
2018-11-29T02:54:58.169Z,18.8
2018-11-29T02:56:00.064Z,18.8
2018-11-29T02:57:01.435Z,18.8
2018-11-29T02:58:03.329Z,18.8
2018-11-29T02:59:05.246Z,18.8
2018-11-29T03:00:06.867Z,18.8
2018-11-29T03:01:08.761Z,18.9
2018-11-29T03:02:10.662Z,18.8
2018-11-29T03:03:12.275Z,18.8
2018-11-29T03:04:13.891Z,18.9
2018-11-29T03:05:15.213Z,18.8
2018-11-29T03:06:16.838Z,18.9
2018-11-29T03:07:18.465Z,18.8
2018-11-29T03:08:20.082Z,18.8
2018-11-29T03:09:21.407Z,18.8
2018-11-29T03:10:23.026Z,18.8
2018-11-29T03:11:24.922Z,18.9
2018-11-29T03:12:26.546Z,18.8
2018-11-29T03:13:28.157Z,18.8
2018-11-29T03:14:30.047Z,18.9
2018-11-29T03:15:31.669Z,18.8
2018-11-29T03:16:33.271Z,18.8
2018-11-29T03:17:35.166Z,18.8
2018-11-29T03:18:37.062Z,18.7
2018-11-29T03:19:38.956Z,18.7
2018-11-29T03:20:40.283Z,18.8
2018-11-29T03:21:42.181Z,18.8
2018-11-29T03:22:43.578Z,18.7
2018-11-29T03:23:44.901Z,18.7
2018-11-29T03:24:46.516Z,18.8
2018-11-29T03:25:48.419Z,18.8
2018-11-29T03:26:49.758Z,18.8
2018-11-29T03:27:51.378Z,18.8
2018-11-29T03:28:52.148Z,18.8
2018-11-29T03:29:53.492Z,18.7
2018-11-29T03:30:55.396Z,18.7
2018-11-29T03:31:57.019Z,18.7
2018-11-29T03:32:58.920Z,18.8
2018-11-29T03:34:00.532Z,18.8
2018-11-29T03:35:02.425Z,18.7
2018-11-29T03:36:04.025Z,18.7
2018-11-29T03:37:05.918Z,18.8
2018-11-29T03:38:07.577Z,18.8
2018-11-29T03:39:08.917Z,18.8
2018-11-29T03:40:10.534Z,18.7
2018-11-29T03:41:11.608Z,18.6
2018-11-29T03:42:13.501Z,18.7
2018-11-29T03:43:15.395Z,18.7
2018-11-29T03:44:17.290Z,18.7
2018-11-29T03:45:18.636Z,18.7
2018-11-29T03:46:19.982Z,18.7
2018-11-29T03:47:21.600Z,18.7
2018-11-29T03:48:23.217Z,18.7
2018-11-29T03:49:24.820Z,18.6
2018-11-29T03:50:26.709Z,18.7
2018-11-29T03:51:28.050Z,18.7
2018-11-29T03:52:29.952Z,18.7
2018-11-29T03:53:31.272Z,18.7
2018-11-29T03:54:32.613Z,18.7
2018-11-29T03:55:34.518Z,18.7
2018-11-29T03:56:36.407Z,18.7
2018-11-29T03:57:38.028Z,18.8
2018-11-29T03:58:39.921Z,18.8
2018-11-29T03:59:41.242Z,18.8
2018-11-29T04:00:43.141Z,18.8
2018-11-29T04:01:45.028Z,18.8
2018-11-29T04:02:46.075Z,18.8
2018-11-29T04:03:47.728Z,18.7
2018-11-29T04:04:49.621Z,18.8
2018-11-29T04:05:51.516Z,18.8
2018-11-29T04:06:53.137Z,18.8
2018-11-29T04:07:54.484Z,18.7
2018-11-29T04:08:55.813Z,18.8
2018-11-29T04:09:57.137Z,18.8
2018-11-29T04:10:58.479Z,18.7
2018-11-29T04:11:59.256Z,18.7
2018-11-29T04:13:00.876Z,18.7
2018-11-29T04:14:02.476Z,18.7
2018-11-29T04:15:04.096Z,18.7
2018-11-29T04:16:05.416Z,18.7
2018-11-29T04:17:07.309Z,18.7
2018-11-29T04:18:09.203Z,18.7
2018-11-29T04:19:10.971Z,18.8
2018-11-29T04:20:12.589Z,18.7
2018-11-29T04:21:14.485Z,18.8
2018-11-29T04:22:16.105Z,18.6
2018-11-29T04:23:17.450Z,18.7
2018-11-29T04:24:19.070Z,18.7
2018-11-29T04:25:20.965Z,18.7
2018-11-29T04:26:22.582Z,18.7
2018-11-29T04:27:24.249Z,18.7
2018-11-29T04:28:26.144Z,18.7
2018-11-29T04:29:27.763Z,18.7
2018-11-29T04:30:29.658Z,18.7
2018-11-29T04:31:31.257Z,18.7
2018-11-29T04:32:33.153Z,18.6
2018-11-29T04:33:34.215Z,18.6
2018-11-29T04:34:36.102Z,18.7
2018-11-29T04:35:37.720Z,18.6
2018-11-29T04:36:39.344Z,18.6
2018-11-29T04:37:41.238Z,18.7
2018-11-29T04:38:42.581Z,18.6
2018-11-29T04:39:44.155Z,18.6
2018-11-29T04:40:45.778Z,18.6
2018-11-29T04:41:47.397Z,18.7
2018-11-29T04:42:49.289Z,18.6
2018-11-29T04:43:50.635Z,18.6
2018-11-29T04:44:52.528Z,18.6
2018-11-29T04:45:54.422Z,18.7
2018-11-29T04:46:56.039Z,18.7
2018-11-29T04:47:57.365Z,18.6
2018-11-29T04:48:58.684Z,18.6
2018-11-29T04:50:00.576Z,18.6
2018-11-29T04:51:02.470Z,18.5
2018-11-29T04:52:03.796Z,18.5
2018-11-29T04:53:05.689Z,18.5
2018-11-29T04:54:07.035Z,18.5
2018-11-29T04:55:08.651Z,18.6
2018-11-29T04:56:10.270Z,18.6
2018-11-29T04:57:12.178Z,18.6
2018-11-29T04:58:13.795Z,18.5
2018-11-29T04:59:15.415Z,18.6
2018-11-29T05:00:16.738Z,18.6
2018-11-29T05:01:18.357Z,18.7
2018-11-29T05:02:19.700Z,18.7
2018-11-29T05:03:21.318Z,18.6
2018-11-29T05:04:22.649Z,18.7
2018-11-29T05:05:24.554Z,18.6
2018-11-29T05:06:25.896Z,18.7
2018-11-29T05:07:27.245Z,18.7
2018-11-29T05:08:29.184Z,18.6
2018-11-29T05:09:30.784Z,18.7
2018-11-29T05:10:32.402Z,18.7
2018-11-29T05:11:33.452Z,18.8
2018-11-29T05:12:34.223Z,18.6
2018-11-29T05:13:35.846Z,18.6
2018-11-29T05:14:37.224Z,18.6
2018-11-29T05:15:38.863Z,18.7
2018-11-29T05:16:40.756Z,18.7
2018-11-29T05:17:42.375Z,18.7
2018-11-29T05:18:44.268Z,18.7
2018-11-29T05:19:45.883Z,18.8
2018-11-29T05:20:47.783Z,18.8
2018-11-29T05:21:49.402Z,18.8
2018-11-29T05:22:51.296Z,18.8
2018-11-29T05:23:52.916Z,18.8
2018-11-29T05:24:54.256Z,18.8
2018-11-29T05:25:55.877Z,18.8
2018-11-29T05:26:57.771Z,18.8
2018-11-29T05:27:59.372Z,18.8
2018-11-29T05:29:00.997Z,18.8
2018-11-29T05:30:02.891Z,18.8
2018-11-29T05:31:04.509Z,18.8
2018-11-29T05:32:06.885Z,18.9
2018-11-29T05:33:08.822Z,18.9
2018-11-29T05:34:10.442Z,18.9
2018-11-29T05:35:12.335Z,18.8
2018-11-29T05:36:13.951Z,18.8
2018-11-29T05:37:14.999Z,19
2018-11-29T05:38:16.892Z,18.9
2018-11-29T05:39:18.791Z,18.9
2018-11-29T05:40:20.414Z,18.9
2018-11-29T05:41:22.038Z,18.9
2018-11-29T05:42:23.630Z,18.9
2018-11-29T05:43:25.249Z,18.8
2018-11-29T05:44:26.570Z,18.8
2018-11-29T05:45:28.192Z,18.8
2018-11-29T05:46:29.829Z,18.8
2018-11-29T05:47:31.447Z,18.8
2018-11-29T05:48:33.340Z,18.8
2018-11-29T05:49:35.234Z,18.8
2018-11-29T05:50:37.129Z,18.8
2018-11-29T05:51:38.456Z,18.8
2018-11-29T05:52:39.502Z,18.9
2018-11-29T05:53:42.828Z,18.8
2018-11-29T05:54:44.158Z,18.8
2018-11-29T05:55:45.771Z,18.9
2018-11-29T05:56:47.396Z,18.9
2018-11-29T05:57:49.287Z,18.9
2018-11-29T05:58:50.908Z,18.8
2018-11-29T05:59:52.804Z,19
2018-11-29T06:00:54.420Z,19
2018-11-29T06:01:56.315Z,19
2018-11-29T06:02:58.210Z,19
2018-11-29T06:03:59.535Z,19
2018-11-29T06:05:01.431Z,18.9
2018-11-29T06:06:03.322Z,19
2018-11-29T06:07:04.668Z,18.9
2018-11-29T06:08:06.286Z,18.9
2018-11-29T06:09:07.899Z,18.9
2018-11-29T06:10:09.516Z,18.9
2018-11-29T06:11:11.143Z,18.9
2018-11-29T06:12:13.033Z,18.9
2018-11-29T06:13:14.634Z,18.9
2018-11-29T06:14:16.254Z,18.9
2018-11-29T06:15:18.154Z,18.9
2018-11-29T06:16:20.046Z,18.9
2018-11-29T06:17:21.664Z,18.9
2018-11-29T06:18:23.284Z,18.9
2018-11-29T06:19:24.906Z,19
2018-11-29T06:20:26.249Z,18.9
2018-11-29T06:21:27.870Z,18.9
2018-11-29T06:22:28.917Z,18.9
2018-11-29T06:23:30.242Z,18.8
2018-11-29T06:24:31.862Z,19
2018-11-29T06:25:33.757Z,18.9
2018-11-29T06:26:35.353Z,18.8
2018-11-29T06:27:37.248Z,18.9
2018-11-29T06:28:38.889Z,18.9
2018-11-29T06:29:40.510Z,19
2018-11-29T06:30:42.107Z,18.7
2018-11-29T06:31:44.005Z,18.7
2018-11-29T06:32:45.393Z,18.7
2018-11-29T06:33:46.713Z,18.7
2018-11-29T06:34:48.334Z,18.7
2018-11-29T06:35:49.675Z,18.8
2018-11-29T06:36:51.608Z,18.7
2018-11-29T06:37:52.942Z,18.6
2018-11-29T06:38:54.537Z,18.7
2018-11-29T06:39:55.856Z,18.7
2018-11-29T06:40:57.475Z,18.6
2018-11-29T06:41:59.075Z,18.6
2018-11-29T06:43:00.975Z,18.7
2018-11-29T06:44:02.314Z,18.7
2018-11-29T06:45:04.227Z,18.6
2018-11-29T06:46:05.576Z,18.7
2018-11-29T06:47:06.899Z,18.5
2018-11-29T06:48:08.223Z,18.5
2018-11-29T06:49:09.842Z,18.4
2018-11-29T06:50:10.619Z,18.4
2018-11-29T06:51:12.236Z,18.4
2018-11-29T06:52:14.133Z,18.5
2018-11-29T06:53:16.075Z,18.6
2018-11-29T06:54:17.975Z,18.6
2018-11-29T06:55:19.298Z,18.7
2018-11-29T06:56:20.643Z,18.7
2018-11-29T06:57:21.989Z,18.7
2018-11-29T06:58:23.605Z,18.8
2018-11-29T06:59:25.240Z,18.8
2018-11-29T07:00:26.564Z,18.8
2018-11-29T07:01:27.886Z,18.8
2018-11-29T07:02:29.485Z,18.8
2018-11-29T07:03:31.081Z,18.8
2018-11-29T07:04:32.703Z,18.8
2018-11-29T07:05:34.319Z,18.9
2018-11-29T07:06:35.667Z,18.9
2018-11-29T07:07:37.033Z,19
2018-11-29T07:08:38.653Z,18.8
2018-11-29T07:09:40.253Z,18.9
2018-11-29T07:10:41.850Z,18.9
2018-11-29T07:11:43.766Z,18.9
2018-11-29T07:12:44.834Z,18.8
2018-11-29T07:13:46.728Z,18.9
2018-11-29T07:14:48.623Z,18.8
2018-11-29T07:15:50.514Z,18.8
2018-11-29T07:16:52.128Z,18.8
2018-11-29T07:17:53.441Z,18.8
2018-11-29T07:18:54.484Z,18.8
2018-11-29T07:19:55.831Z,18.9
2018-11-29T07:20:57.725Z,18.8
2018-11-29T07:21:59.352Z,18.9
2018-11-29T07:23:01.260Z,18.9
2018-11-29T07:24:03.154Z,18.8
2018-11-29T07:25:05.055Z,18.9
2018-11-29T07:26:06.649Z,19
2018-11-29T07:27:08.269Z,18.8
2018-11-29T07:28:09.882Z,18.8
2018-11-29T07:29:11.230Z,18.8
2018-11-29T07:30:18.465Z,18.8
2018-11-29T07:31:20.362Z,18.8
2018-11-29T07:32:21.704Z,18.9
2018-11-29T07:33:23.340Z,18.8
2018-11-29T07:34:24.646Z,18.8
2018-11-29T07:35:25.697Z,18.9
2018-11-29T07:36:26.769Z,18.9
2018-11-29T07:37:27.836Z,19
2018-11-29T07:38:28.609Z,18.9
2018-11-29T07:39:30.507Z,18.8
2018-11-29T07:40:32.400Z,18.9
2018-11-29T07:41:34.024Z,18.9
2018-11-29T07:42:35.621Z,19
2018-11-29T07:43:37.572Z,19
2018-11-29T07:44:39.464Z,18.9
2018-11-29T07:45:41.129Z,19
2018-11-29T07:46:42.980Z,19.1
2018-11-29T07:47:44.675Z,19
2018-11-29T07:48:46.294Z,19.1
2018-11-29T07:49:47.779Z,19
2018-11-29T07:50:49.420Z,19
2018-11-29T07:51:50.846Z,18.9
2018-11-29T07:52:53.302Z,18.9
2018-11-29T07:53:55.202Z,18.9
2018-11-29T07:54:57.108Z,19
2018-11-29T07:55:58.451Z,19
2018-11-29T07:57:00.343Z,19
2018-11-29T07:58:02.236Z,19
2018-11-29T07:59:03.857Z,19.1
2018-11-29T08:00:05.207Z,18.9
2018-11-29T08:01:06.804Z,19.1
2018-11-29T08:02:08.698Z,19
2018-11-29T08:03:10.391Z,19.1
2018-11-29T08:04:11.445Z,19.1
2018-11-29T08:05:13.045Z,19.1
2018-11-29T08:06:14.366Z,19.1
2018-11-29T08:07:15.985Z,19.2
2018-11-29T08:08:17.605Z,19.1
2018-11-29T08:09:18.926Z,19.1
2018-11-29T08:10:19.975Z,19.2
2018-11-29T08:11:21.298Z,19.1
2018-11-29T08:12:22.902Z,19.1
2018-11-29T08:13:24.798Z,19.1
2018-11-29T08:14:25.851Z,19.1
2018-11-29T08:15:27.194Z,19.1
2018-11-29T08:16:29.091Z,19.1
2018-11-29T08:17:30.413Z,19.1
2018-11-29T08:18:32.039Z,19.1
2018-11-29T08:19:33.935Z,19.1
2018-11-29T08:20:35.833Z,19.1
2018-11-29T08:21:37.732Z,19.1
2018-11-29T08:22:39.350Z,19.2
2018-11-29T08:23:40.949Z,19.1
2018-11-29T08:24:42.550Z,19.1
2018-11-29T08:25:44.178Z,19.1
2018-11-29T08:26:45.262Z,19.1
2018-11-29T08:27:47.159Z,18.9
2018-11-29T08:28:48.778Z,18.9
2018-11-29T08:29:50.118Z,18.9
2018-11-29T08:30:51.187Z,19
2018-11-29T08:31:52.529Z,19
2018-11-29T08:32:54.149Z,19
2018-11-29T08:33:55.512Z,19.1
2018-11-29T08:34:57.131Z,19.1
2018-11-29T08:35:58.731Z,19.1
2018-11-29T08:37:00.328Z,19.1
2018-11-29T08:38:01.649Z,19.1
2018-11-29T08:39:03.866Z,19.1
2018-11-29T08:40:05.758Z,19.1
2018-11-29T08:41:07.354Z,19.1
2018-11-29T08:42:08.682Z,19.1
2018-11-29T08:43:09.462Z,18.9
2018-11-29T08:44:11.080Z,19
2018-11-29T08:45:12.404Z,19
2018-11-29T08:46:13.766Z,19
2018-11-29T08:47:15.663Z,19.1
2018-11-29T08:48:16.710Z,19.1
2018-11-29T08:49:18.606Z,19.1
2018-11-29T08:50:21.740Z,19.1
2018-11-29T08:51:23.633Z,19.1
2018-11-29T08:52:25.362Z,19.1
2018-11-29T08:53:27.261Z,19.1
2018-11-29T08:54:29.152Z,19.1
2018-11-29T08:55:31.048Z,19.2
2018-11-29T08:56:32.101Z,19.2
2018-11-29T08:57:33.440Z,19.2
2018-11-29T08:58:35.498Z,19
2018-11-29T08:59:37.097Z,19.1
2018-11-29T09:00:39.900Z,19.1
2018-11-29T09:01:41.228Z,19.1
2018-11-29T09:02:43.121Z,19.1
2018-11-29T09:03:44.769Z,19.1
2018-11-29T09:04:46.357Z,19.1
2018-11-29T09:05:47.981Z,19.1
2018-11-29T09:06:49.359Z,19.1
2018-11-29T09:07:51.253Z,19.1
2018-11-29T09:08:53.148Z,19.1
2018-11-29T09:09:54.468Z,19.1
2018-11-29T09:10:56.120Z,19.1
2018-11-29T09:11:58.015Z,19.1
2018-11-29T09:12:59.340Z,19.1
2018-11-29T09:14:00.385Z,19
2018-11-29T09:15:01.729Z,18.9
2018-11-29T09:16:03.350Z,18.9
2018-11-29T09:17:04.974Z,18.9
2018-11-29T09:18:06.595Z,19
2018-11-29T09:19:08.494Z,18.9
2018-11-29T09:20:09.821Z,18.9
2018-11-29T09:21:11.443Z,18.9
2018-11-29T09:22:13.063Z,19
2018-11-29T09:23:14.963Z,19
2018-11-29T09:24:16.582Z,19.1
2018-11-29T09:25:18.483Z,19.1
2018-11-29T09:26:20.383Z,19
2018-11-29T09:27:22.274Z,19
2018-11-29T09:28:23.912Z,19
2018-11-29T09:29:25.130Z,19
2018-11-29T09:30:27.020Z,19.1
2018-11-29T09:31:28.918Z,19.1
2018-11-29T09:32:29.970Z,19.1
2018-11-29T09:33:31.868Z,19.1
2018-11-29T09:34:33.224Z,19.1
2018-11-29T09:35:35.119Z,19.1
2018-11-29T09:36:36.168Z,19.2
2018-11-29T09:37:38.061Z,19.2
2018-11-29T09:38:39.677Z,19.2
2018-11-29T09:39:41.572Z,19.1
2018-11-29T09:40:43.520Z,19.2
2018-11-29T09:41:45.416Z,19
2018-11-29T09:42:47.037Z,19
2018-11-29T09:43:48.934Z,19.1
2018-11-29T09:44:49.993Z,19.1
2018-11-29T09:45:51.609Z,19.2
2018-11-29T09:46:53.503Z,19.2
2018-11-29T09:47:55.404Z,19.2
2018-11-29T09:48:57.022Z,19.1
2018-11-29T09:49:58.646Z,19
2018-11-29T09:50:59.990Z,19.2
2018-11-29T09:52:01.335Z,19
2018-11-29T09:53:02.958Z,19.1
2018-11-29T09:54:04.286Z,19.1
2018-11-29T09:55:05.604Z,19.2
2018-11-29T09:56:07.224Z,19.1
2018-11-29T09:57:08.838Z,19.2
2018-11-29T09:58:10.182Z,19.1
2018-11-29T09:59:12.077Z,19
2018-11-29T10:00:13.972Z,19.1
2018-11-29T10:01:15.301Z,19.1
2018-11-29T10:02:16.919Z,19.1
2018-11-29T10:03:18.813Z,19
2018-11-29T10:04:20.412Z,19.1
2018-11-29T10:05:22.033Z,19.2
2018-11-29T10:06:23.433Z,19.1
2018-11-29T10:07:24.210Z,19.1
2018-11-29T10:08:26.145Z,19.1
2018-11-29T10:09:27.557Z,19.1
2018-11-29T10:10:29.449Z,19.2
2018-11-29T10:11:31.367Z,19.2
2018-11-29T10:12:33.158Z,19.2
2018-11-29T10:13:34.215Z,19.2
2018-11-29T10:14:36.127Z,19.2
2018-11-29T10:15:37.483Z,19.3
2018-11-29T10:16:39.375Z,19.2
2018-11-29T10:17:41.281Z,19.2
2018-11-29T10:18:42.623Z,19.3
2018-11-29T10:19:44.515Z,19.3
2018-11-29T10:20:46.417Z,19.4
2018-11-29T10:21:47.766Z,19.4
2018-11-29T10:22:49.387Z,19.3
2018-11-29T10:23:50.735Z,19.4
2018-11-29T10:24:52.338Z,19.5
2018-11-29T10:25:53.682Z,19.3
2018-11-29T10:26:55.577Z,19.3
2018-11-29T10:27:56.925Z,19.4
2018-11-29T10:28:58.818Z,19.4
2018-11-29T10:29:59.863Z,19.4
2018-11-29T10:31:01.490Z,19.4
2018-11-29T10:32:02.812Z,19.5
2018-11-29T10:33:04.748Z,19.4
2018-11-29T10:34:06.727Z,19.3
2018-11-29T10:35:08.064Z,19.3
2018-11-29T10:36:09.446Z,19.3
2018-11-29T10:37:11.058Z,19.2
2018-11-29T10:38:12.953Z,19.3
2018-11-29T10:39:14.301Z,19.3
2018-11-29T10:40:15.626Z,19.4
2018-11-29T10:41:17.222Z,19.3
2018-11-29T10:42:18.359Z,19.5
2018-11-29T10:43:19.829Z,19.4
2018-11-29T10:44:21.505Z,19.4
2018-11-29T10:45:23.007Z,19.4
2018-11-29T10:46:25.196Z,19.4
2018-11-29T10:47:27.342Z,19.4
2018-11-29T10:48:29.415Z,19.5
2018-11-29T10:49:31.366Z,19.4
2018-11-29T10:50:33.063Z,19.4
2018-11-29T10:51:35.140Z,19.4
2018-11-29T10:52:36.891Z,19.3
2018-11-29T10:53:38.780Z,19.4
2018-11-29T10:54:40.115Z,19.3
2018-11-29T10:55:41.802Z,19.3
2018-11-29T10:56:43.426Z,19.3
2018-11-29T10:57:45.050Z,19.3
2018-11-29T10:58:46.953Z,19.2
2018-11-29T10:59:48.861Z,19.3
2018-11-29T11:00:50.740Z,19.3
2018-11-29T11:01:52.201Z,19.3
2018-11-29T11:02:53.978Z,19.4
2018-11-29T11:03:55.867Z,19.3
2018-11-29T11:04:57.499Z,19.4
2018-11-29T11:05:59.538Z,19.4
2018-11-29T11:07:00.906Z,19.4
2018-11-29T11:08:08.009Z,19.4
2018-11-29T11:09:10.652Z,19.5
2018-11-29T11:10:12.283Z,19.4
2018-11-29T11:11:14.304Z,19.4
2018-11-29T11:12:18.685Z,19.4
2018-11-29T11:13:20.705Z,19.3
2018-11-29T11:14:22.602Z,19.4
2018-11-29T11:15:23.653Z,19.4
2018-11-29T11:16:25.252Z,19.3
2018-11-29T11:17:26.310Z,19.4
2018-11-29T11:18:27.654Z,19.3
2018-11-29T11:19:29.004Z,19.4
2018-11-29T11:20:30.901Z,19.4
2018-11-29T11:21:32.798Z,19.4
2018-11-29T11:22:33.873Z,19.4
2018-11-29T11:23:35.259Z,19.4
2018-11-29T11:24:37.193Z,19.4
2018-11-29T11:25:38.560Z,19.4
2018-11-29T11:26:40.192Z,19.3
2018-11-29T11:27:42.199Z,19.2
2018-11-29T11:28:44.154Z,19.2
2018-11-29T11:29:45.235Z,19.2
2018-11-29T11:30:47.179Z,19.2
2018-11-29T11:31:48.825Z,19.3
2018-11-29T11:32:50.748Z,19.3
2018-11-29T11:33:52.085Z,19.3
2018-11-29T11:34:53.740Z,19.2
2018-11-29T11:35:55.366Z,19.3
2018-11-29T11:36:56.714Z,19.2
2018-11-29T11:37:58.351Z,19.2
2018-11-29T11:38:59.972Z,19.2
2018-11-29T11:40:01.315Z,19.3
2018-11-29T11:41:02.399Z,19.3
2018-11-29T11:42:04.313Z,19.3
2018-11-29T11:43:05.987Z,19.3
2018-11-29T11:44:08.267Z,19.4
2018-11-29T11:45:09.868Z,19.4
2018-11-29T11:46:11.487Z,19.4
2018-11-29T11:47:13.425Z,19.4
2018-11-29T11:48:15.349Z,19.3
2018-11-29T11:49:17.287Z,19.4
2018-11-29T11:50:19.186Z,19.4
2018-11-29T11:51:20.808Z,19.4
2018-11-29T11:52:22.766Z,19.3
2018-11-29T11:53:24.114Z,19.5
2018-11-29T11:54:25.169Z,19.3
2018-11-29T11:55:29.879Z,19.3
2018-11-29T11:56:31.902Z,19.2
2018-11-29T11:57:33.499Z,19.3
2018-11-29T11:58:35.394Z,19.3
2018-11-29T11:59:37.326Z,19.3
2018-11-29T12:00:38.407Z,19.2
2018-11-29T12:01:39.756Z,19.2
2018-11-29T12:02:41.377Z,19.3
2018-11-29T12:03:42.544Z,19.2
2018-11-29T12:04:48.569Z,19.2
2018-11-29T12:05:50.250Z,19.4
2018-11-29T12:06:51.868Z,19.3
2018-11-29T12:07:53.487Z,19.4
2018-11-29T12:08:55.139Z,19.4
2018-11-29T12:09:56.794Z,19.4
2018-11-29T12:10:58.690Z,19.5
2018-11-29T12:12:00.309Z,19.5
2018-11-29T12:13:02.203Z,19.4
2018-11-29T12:14:04.095Z,19.5
2018-11-29T12:15:05.415Z,19.4
2018-11-29T12:16:07.313Z,19.4
2018-11-29T12:17:08.938Z,19.4
2018-11-29T12:18:10.831Z,19.4
2018-11-29T12:19:12.728Z,19.4
2018-11-29T12:20:14.061Z,19.4
2018-11-29T12:21:15.681Z,19.4
2018-11-29T12:22:17.303Z,19.4
2018-11-29T12:23:18.905Z,19.4
2018-11-29T12:24:20.529Z,19.4
2018-11-29T12:25:22.485Z,19.4
2018-11-29T12:26:24.114Z,19.4
2018-11-29T12:27:25.725Z,19.4
2018-11-29T12:28:27.623Z,19.5
2018-11-29T12:29:29.252Z,19.5
2018-11-29T12:30:31.142Z,19.5
2018-11-29T12:31:32.764Z,19.5
2018-11-29T12:32:34.663Z,19.6
2018-11-29T12:33:36.010Z,19.5
2018-11-29T12:34:37.329Z,19.5
2018-11-29T12:35:38.940Z,19.6
2018-11-29T12:36:40.284Z,19.5
2018-11-29T12:37:41.908Z,19.5
2018-11-29T12:38:43.802Z,19.4
2018-11-29T12:39:45.399Z,19.5
2018-11-29T12:40:47.015Z,19.5
2018-11-29T12:41:48.637Z,19.5
2018-11-29T12:42:50.530Z,19.4
2018-11-29T12:43:52.428Z,19.4
2018-11-29T12:44:54.032Z,19.4
2018-11-29T12:45:55.651Z,19.4
2018-11-29T12:46:57.551Z,19.5
2018-11-29T12:47:58.898Z,19.6
2018-11-29T12:49:00.794Z,19.5
2018-11-29T12:50:02.413Z,19.5
2018-11-29T12:51:04.018Z,19.5
2018-11-29T12:52:05.368Z,19.5
2018-11-29T12:53:06.999Z,19.5
2018-11-29T12:54:08.960Z,19.6
2018-11-29T12:55:10.623Z,19.6
2018-11-29T12:56:11.943Z,19.5
2018-11-29T12:57:13.837Z,19.6
2018-11-29T12:58:15.434Z,19.6
2018-11-29T12:59:17.057Z,19.6
2018-11-29T13:00:18.954Z,19.6
2018-11-29T13:01:20.302Z,19.5
2018-11-29T13:02:21.924Z,19.4
2018-11-29T13:03:23.820Z,19.4
2018-11-29T13:04:25.419Z,19.2
2018-11-29T13:05:27.022Z,19.4
2018-11-29T13:06:28.915Z,19.3
2018-11-29T13:07:29.970Z,19.3
2018-11-29T13:08:31.863Z,19.4
2018-11-29T13:09:33.465Z,19.4
2018-11-29T13:10:35.357Z,19.5
2018-11-29T13:11:36.704Z,19.5
2018-11-29T13:12:38.600Z,19.5
2018-11-29T13:13:40.208Z,19.5
2018-11-29T13:14:42.106Z,19.4
2018-11-29T13:15:43.457Z,19.4
2018-11-29T13:16:44.800Z,19.4
2018-11-29T13:17:46.427Z,19.4
2018-11-29T13:18:48.482Z,19.4
2018-11-29T13:19:50.372Z,19.4
2018-11-29T13:20:51.991Z,19.5
2018-11-29T13:21:53.346Z,19.4
2018-11-29T13:22:54.942Z,19.4
2018-11-29T13:24:00.004Z,19.5
2018-11-29T13:25:02.573Z,19.5
2018-11-29T13:26:04.199Z,19.5
2018-11-29T13:27:05.544Z,19.5
2018-11-29T13:28:07.168Z,19.5
2018-11-29T13:29:09.078Z,19.6
2018-11-29T13:30:10.446Z,19.5
2018-11-29T13:31:11.813Z,19.6
2018-11-29T13:32:13.162Z,19.6
2018-11-29T13:33:14.786Z,19.5
2018-11-29T13:34:16.104Z,19.5
2018-11-29T13:35:17.450Z,19.6
2018-11-29T13:36:19.438Z,19.5
2018-11-29T13:37:21.031Z,19.5
2018-11-29T13:38:23.272Z,19.5
2018-11-29T13:39:24.893Z,19.4
2018-11-29T13:40:26.300Z,19.4
2018-11-29T13:41:27.668Z,19.5
2018-11-29T13:42:28.732Z,19.5
2018-11-29T13:43:30.282Z,19.5
2018-11-29T13:44:32.201Z,19.5